Time;durP1;ratioP1;P1;durP2;ratioP2;P2;SDS_P1;SDS_P2;PMS_P1;PMS_P2;Temp;Humidity;BMP_temperature;BMP_pressure;BME280_temperature;BME280_humidity;BME280_pressure;Samples;Min_cycle;Max_cycle;Signal;HPM_P1;HPM_P2
2021/03/04 00:00:18;;;;;;;25.45;13.43;;;;;;;3.84;100.00;96784.22;1023595;28;20034;-57
2021/03/04 00:00:49;;;;;;;24.20;14.35;;;;;;;3.83;100.00;96789.59;1023491;28;20023;-56
2021/03/04 00:01:20;;;;;;;23.52;13.30;;;;;;;3.84;100.00;96778.97;1019792;29;20046;-56
2021/03/04 00:01:50;;;;;;;22.67;13.60;;;;;;;3.82;100.00;96774.81;1023624;28;20027;-56
2021/03/04 00:02:21;;;;;;;22.38;13.82;;;;;;;3.84;100.00;96778.16;1027579;28;20125;-57
2021/03/04 00:02:52;;;;;;;22.23;13.63;;;;;;;3.85;100.00;96782.44;1027423;28;20035;-56
2021/03/04 00:03:23;;;;;;;26.20;13.85;;;;;;;3.83;100.00;96785.19;1027573;28;20018;-57
2021/03/04 00:03:53;;;;;;;28.60;15.05;;;;;;;3.82;100.00;96787.94;1023243;28;20031;-56
2021/03/04 00:04:24;;;;;;;26.75;13.40;;;;;;;3.78;100.00;96768.94;1027664;28;20473;-56
2021/03/04 00:04:55;;;;;;;25.50;13.63;;;;;;;3.81;100.00;96778.38;1027498;28;20015;-57
2021/03/04 00:05:25;;;;;;;26.58;14.50;;;;;;;3.81;100.00;96778.38;1023504;29;20011;-55
2021/03/04 00:05:56;;;;;;;26.50;15.02;;;;;;;3.81;100.00;96781.00;1031572;28;20080;-57
2021/03/04 00:06:27;;;;;;;25.05;14.88;;;;;;;3.83;100.00;96782.56;1019640;29;20075;-57
2021/03/04 00:06:57;;;;;;;26.52;15.05;;;;;;;3.82;100.00;96783.50;1027461;28;20125;-57
2021/03/04 00:08:08;;;;;;;26.90;15.00;;;;;;;3.82;100.00;96775.63;1023791;28;20120;-56
2021/03/04 00:08:39;;;;;;;28.55;15.35;;;;;;;3.83;100.00;96776.47;1031505;28;20484;-55
2021/03/04 00:09:09;;;;;;;24.85;14.50;;;;;;;3.80;100.00;96767.03;1027757;28;20015;-55
2021/03/04 00:09:40;;;;;;;22.27;13.77;;;;;;;3.81;100.00;96776.56;1023495;29;20070;-57
2021/03/04 00:10:13;;;;;;;25.10;14.57;;;;;;;3.79;100.00;96770.59;1035090;28;20026;-55
2021/03/04 00:10:44;;;;;;;26.08;14.18;;;;;;;3.81;100.00;96768.69;1023500;28;20031;-57
2021/03/04 00:11:15;;;;;;;23.92;14.23;;;;;;;3.84;100.00;96775.53;1027574;28;20373;-54
2021/03/04 00:11:45;;;;;;;26.95;14.00;;;;;;;3.84;100.00;96773.72;1031454;28;20022;-55
2021/03/04 00:12:17;;;;;;;24.15;14.18;;;;;;;3.83;100.00;96769.44;1027502;28;20019;-57
2021/03/04 00:12:48;;;;;;;24.38;14.23;;;;;;;3.84;100.00;96765.84;1035660;28;20056;-55
2021/03/04 00:13:20;;;;;;;24.67;13.93;;;;;;;3.87;100.00;96767.41;1035574;28;20022;-55
2021/03/04 00:13:50;;;;;;;25.27;14.32;;;;;;;3.81;100.00;96746.84;1031364;28;20022;-55
2021/03/04 00:14:21;;;;;;;28.77;15.68;;;;;;;3.89;100.00;96755.81;1031582;28;20026;-56
2021/03/04 00:14:52;;;;;;;27.10;14.38;;;;;;;3.89;100.00;96765.50;1035597;28;20022;-52
2021/03/04 00:15:25;;;;;;;23.48;13.75;;;;;;;3.87;100.00;96757.75;1031641;28;20030;-56
2021/03/04 00:15:55;;;;;;;23.63;12.90;;;;;;;3.90;100.00;96757.50;1035474;28;20037;-55
2021/03/04 00:16:26;;;;;;;21.85;14.13;;;;;;;3.90;100.00;96751.41;1035615;28;20029;-57
2021/03/04 00:16:57;;;;;;;25.13;13.30;;;;;;;3.90;100.00;96760.16;1035622;28;20034;-55
2021/03/04 00:17:27;;;;;;;25.92;13.95;;;;;;;3.91;100.00;96759.19;1031467;28;20395;-54
2021/03/04 00:17:58;;;;;;;23.80;13.98;;;;;;;3.84;100.00;96742.19;1027427;28;20030;-58
2021/03/04 00:18:29;;;;;;;28.05;14.93;;;;;;;3.88;100.00;96751.50;1035563;28;20037;-55
2021/03/04 00:18:59;;;;;;;22.88;13.43;;;;;;;3.95;100.00;96757.16;1031540;28;20050;-55
2021/03/04 00:19:30;;;;;;;23.98;13.95;;;;;;;3.93;100.00;96749.38;1039684;28;20183;-58
2021/03/04 00:20:05;;;;;;;19.42;13.10;;;;;;;3.93;100.00;96752.00;1035503;28;20022;-57
2021/03/04 00:20:35;;;;;;;23.88;13.85;;;;;;;3.87;100.00;96741.97;1031553;28;20027;-54
2021/03/04 00:21:06;;;;;;;24.25;14.15;;;;;;;3.91;100.00;96751.28;1035605;28;20102;-56
2021/03/04 00:21:37;;;;;;;25.67;14.65;;;;;;;3.96;100.00;96750.97;1023566;28;20106;-55
2021/03/04 00:22:07;;;;;;;23.95;13.38;;;;;;;3.95;100.00;96754.53;1035470;28;20026;-56
2021/03/04 00:22:38;;;;;;;24.80;13.32;;;;;;;3.96;100.00;96746.53;1043767;28;20138;-55
2021/03/04 00:23:09;;;;;;;24.70;14.30;;;;;;;3.99;100.00;96747.25;1027472;28;20109;-56
2021/03/04 00:23:39;;;;;;;27.65;14.30;;;;;;;4.00;100.00;96747.13;1031389;28;20034;-55
2021/03/04 00:24:10;;;;;;;22.65;13.30;;;;;;;3.92;100.00;96734.59;1035440;28;20018;-55
2021/03/04 00:24:41;;;;;;;28.83;14.38;;;;;;;3.96;100.00;96736.03;1031682;28;20022;-56
2021/03/04 00:25:12;;;;;;;25.75;15.18;;;;;;;4.00;100.00;96738.44;1035541;28;20018;-54
2021/03/04 00:25:42;;;;;;;25.45;13.88;;;;;;;4.01;100.00;96738.31;1035687;28;20448;-55
2021/03/04 00:26:13;;;;;;;22.73;13.50;;;;;;;4.03;100.00;96740.81;1039686;28;20386;-58
2021/03/04 00:26:44;;;;;;;25.48;14.05;;;;;;;4.05;100.00;96737.13;1039745;28;20092;-54
2021/03/04 00:27:14;;;;;;;23.73;14.13;;;;;;;4.04;100.00;96735.47;1027495;28;20011;-55
2021/03/04 00:27:45;;;;;;;24.38;13.85;;;;;;;4.06;100.00;96735.31;1039606;28;20009;-56
2021/03/04 00:28:16;;;;;;;25.63;13.60;;;;;;;4.05;100.00;96739.75;1031541;28;20019;-55
2021/03/04 00:28:47;;;;;;;24.10;13.95;;;;;;;3.99;100.00;96731.47;1027440;28;20353;-58
2021/03/04 00:29:17;;;;;;;24.58;15.07;;;;;;;4.03;100.00;96735.56;1027503;28;20065;-55
2021/03/04 00:29:48;;;;;;;23.08;14.07;;;;;;;4.02;100.00;96744.41;1031560;28;20364;-54
2021/03/04 00:30:19;;;;;;;20.88;13.23;;;;;;;4.03;100.00;96735.56;1035625;28;20065;-58
2021/03/04 00:30:50;;;;;;;25.27;14.60;;;;;;;4.04;100.00;96735.47;1039567;28;20013;-54
2021/03/04 00:31:21;;;;;;;23.92;13.10;;;;;;;4.00;100.00;96738.44;1035647;28;20018;-58
2021/03/04 00:31:51;;;;;;;22.70;13.60;;;;;;;4.01;100.00;96732.22;1031495;28;20022;-54
2021/03/04 00:32:22;;;;;;;23.83;13.63;;;;;;;4.02;100.00;96729.47;1031509;28;20442;-55
2021/03/04 00:32:53;;;;;;;25.23;14.32;;;;;;;4.03;100.00;96730.31;1031481;28;20018;-58
2021/03/04 00:33:24;;;;;;;25.42;12.98;;;;;;;4.05;100.00;96731.03;1031415;28;20026;-56
2021/03/04 00:33:55;;;;;;;24.30;13.20;;;;;;;4.04;100.00;96731.97;1031497;28;20014;-54
2021/03/04 00:34:26;;;;;;;30.20;13.73;;;;;;;4.06;100.00;96730.06;1027512;28;20530;-57
2021/03/04 00:34:56;;;;;;;25.70;14.27;;;;;;;4.03;100.00;96731.16;1027385;28;20520;-55
2021/03/04 00:35:27;;;;;;;26.00;13.93;;;;;;;4.06;100.00;96730.06;1027550;28;20019;-56
2021/03/04 00:35:58;;;;;;;23.98;12.77;;;;;;;4.04;100.00;96729.34;1031536;28;20015;-54
2021/03/04 00:36:29;;;;;;;24.65;14.05;;;;;;;4.03;100.00;96725.88;1035652;28;20089;-58
2021/03/04 00:37:00;;;;;;;24.27;14.02;;;;;;;4.02;100.00;96729.47;1031377;28;20510;-55
2021/03/04 00:37:30;;;;;;;25.95;13.77;;;;;;;4.05;100.00;96733.66;1039657;28;20013;-56
2021/03/04 00:38:01;;;;;;;29.13;14.57;;;;;;;4.04;100.00;96727.56;1035477;28;20116;-57
2021/03/04 00:38:32;;;;;;;26.73;14.73;;;;;;;4.05;100.00;96728.41;1035587;28;20045;-55
2021/03/04 00:39:06;;;;;;;32.45;15.23;;;;;;;4.03;100.00;96730.31;1039577;28;20060;-55
2021/03/04 00:39:36;;;;;;;25.90;14.43;;;;;;;4.05;100.00;96715.25;1039638;28;20069;-54
2021/03/04 00:40:08;;;;;;;24.58;13.88;;;;;;;4.03;100.00;96725.88;1031571;28;20515;-56
2021/03/04 00:40:39;;;;;;;22.05;13.48;;;;;;;4.05;100.00;96717.91;1031507;28;20419;-59
2021/03/04 00:41:10;;;;;;;25.92;14.45;;;;;;;4.05;100.00;96717.91;1043624;28;20009;-55
2021/03/04 00:41:41;;;;;;;25.60;14.45;;;;;;;3.97;100.00;96721.94;1035586;28;20403;-54
2021/03/04 00:42:12;;;;;;;25.42;13.20;;;;;;;4.00;100.00;96727.91;1035657;28;20049;-55
2021/03/04 00:42:43;;;;;;;24.85;13.27;;;;;;;4.01;100.00;96721.72;1023515;29;20138;-56
2021/03/04 00:43:13;;;;;;;22.70;13.07;;;;;;;3.98;100.00;96720.13;1027490;28;20440;-56
2021/03/04 00:43:44;;;;;;;22.58;13.48;;;;;;;3.99;100.00;96718.34;1031368;28;20105;-55
2021/03/04 00:44:15;;;;;;;26.55;13.63;;;;;;;3.99;100.00;96719.19;1035611;28;20013;-55
2021/03/04 00:44:46;;;;;;;23.40;13.60;;;;;;;3.95;100.00;96708.09;1039661;28;20009;-56
2021/03/04 00:45:19;;;;;;;30.17;13.70;;;;;;;3.96;100.00;96715.00;1027310;28;20436;-55
2021/03/04 00:45:50;;;;;;;25.27;14.00;;;;;;;3.94;100.00;96716.91;1039589;28;20014;-54
2021/03/04 00:46:21;;;;;;;22.42;12.80;;;;;;;3.95;100.00;96718.59;1031503;28;20029;-54
2021/03/04 00:46:51;;;;;;;24.63;12.63;;;;;;;3.93;100.00;96720.47;1023543;28;20023;-56
2021/03/04 00:47:22;;;;;;;22.80;13.07;;;;;;;3.96;100.00;96716.78;1027319;28;20019;-55
2021/03/04 00:47:53;;;;;;;25.85;13.13;;;;;;;3.96;100.00;96715.00;1027492;28;20519;-55
2021/03/04 00:48:24;;;;;;;24.27;13.18;;;;;;;3.88;100.00;96698.13;1027562;28;20019;-55
2021/03/04 00:48:55;;;;;;;25.00;13.27;;;;;;;3.97;100.00;96713.19;1035599;28;20025;-56
2021/03/04 00:49:26;;;;;;;24.73;13.85;;;;;;;3.94;100.00;96709.03;1035469;28;20072;-53
2021/03/04 00:49:56;;;;;;;30.23;13.82;;;;;;;3.95;100.00;96720.38;1031530;28;20057;-56
2021/03/04 00:50:27;;;;;;;24.63;13.35;;;;;;;3.94;100.00;96714.28;1031442;28;20018;-53
2021/03/04 00:50:58;;;;;;;23.75;13.07;;;;;;;3.95;100.00;96715.09;1027518;28;20019;-57
2021/03/04 00:51:29;;;;;;;26.05;13.68;;;;;;;3.95;100.00;96713.34;1035387;28;20014;-54
2021/03/04 00:51:59;;;;;;;21.35;13.43;;;;;;;3.93;100.00;96715.22;1039743;28;20525;-54
2021/03/04 00:52:30;;;;;;;24.08;13.77;;;;;;;3.93;100.00;96719.66;1039523;28;20081;-56
2021/03/04 00:53:02;;;;;;;22.23;13.00;;;;;;;3.91;100.00;96716.31;1036380;28;20157;-55
2021/03/04 00:53:33;;;;;;;21.65;13.50;;;;;;;3.94;100.00;96714.28;1040125;28;20051;-55
2021/03/04 00:54:04;;;;;;;20.85;13.00;;;;;;;3.94;100.00;96711.66;1036453;28;20375;-54
2021/03/04 00:54:34;;;;;;;24.20;12.70;;;;;;;3.94;100.00;96716.91;1028348;28;20492;-53
2021/03/04 00:55:06;;;;;;;21.75;13.10;;;;;;;3.93;100.00;96714.41;1032298;28;20042;-54
2021/03/04 00:55:37;;;;;;;26.85;13.10;;;;;;;3.93;100.00;96715.22;1036110;28;20101;-55
2021/03/04 00:56:08;;;;;;;22.10;13.55;;;;;;;3.93;100.00;96715.22;1028288;28;20014;-55
2021/03/04 00:56:39;;;;;;;24.50;13.25;;;;;;;3.94;100.00;96719.53;1028270;28;20110;-54
2021/03/04 00:57:10;;;;;;;24.83;13.02;;;;;;;3.93;100.00;96717.03;1036307;28;20045;-55
2021/03/04 00:57:41;;;;;;;21.15;12.77;;;;;;;3.94;100.00;96721.34;1040165;28;20083;-55
2021/03/04 00:58:12;;;;;;;24.38;12.82;;;;;;;3.91;100.00;96711.88;1036443;28;20069;-54
2021/03/04 00:58:42;;;;;;;26.05;13.43;;;;;;;3.92;100.00;96716.19;1032241;28;20105;-56
2021/03/04 00:59:13;;;;;;;25.73;13.13;;;;;;;3.90;100.00;96715.47;1028212;28;20475;-55
2021/03/04 00:59:44;;;;;;;23.33;13.70;;;;;;;3.91;100.00;96718.94;1032166;28;20468;-59
2021/03/04 01:00:15;;;;;;;22.05;13.02;;;;;;;3.91;100.00;96713.69;1036303;28;20010;-54
2021/03/04 01:00:46;;;;;;;22.83;13.15;;;;;;;3.89;100.00;96719.03;1032281;28;20391;-55
2021/03/04 01:01:17;;;;;;;23.48;12.90;;;;;;;3.91;100.00;96711.88;1036379;28;20017;-57
2021/03/04 01:01:47;;;;;;;20.63;12.05;;;;;;;3.91;100.00;96711.88;1036126;28;20010;-55
2021/03/04 01:02:18;;;;;;;24.55;12.30;;;;;;;3.89;100.00;96708.53;1036239;28;20385;-54
2021/03/04 01:02:49;;;;;;;22.45;12.13;;;;;;;3.91;100.00;96714.50;1036346;28;20153;-56
2021/03/04 01:03:19;;;;;;;21.05;12.20;;;;;;;3.93;100.00;96717.84;1036301;28;20038;-55
2021/03/04 01:03:50;;;;;;;21.15;13.13;;;;;;;3.94;100.00;96705.56;1031868;28;20014;-55
2021/03/04 01:04:21;;;;;;;21.92;12.25;;;;;;;3.83;100.00;96700.28;1028057;28;20038;-55
2021/03/04 01:04:51;;;;;;;21.15;12.05;;;;;;;3.93;100.00;96709.97;1036232;28;20068;-53
2021/03/04 01:05:23;;;;;;;25.92;13.15;;;;;;;3.94;100.00;96711.66;1032193;28;20491;-57
2021/03/04 01:05:53;;;;;;;18.85;11.98;;;;;;;3.89;100.00;96716.41;1036236;28;20092;-56
2021/03/04 01:06:24;;;;;;;22.42;12.55;;;;;;;3.90;100.00;96704.97;1040327;28;20505;-54
2021/03/04 01:06:55;;;;;;;23.55;12.15;;;;;;;3.92;100.00;96710.13;1036434;28;20398;-56
2021/03/04 01:07:25;;;;;;;23.17;12.52;;;;;;;3.91;100.00;96709.25;1028271;28;20027;-53
2021/03/04 01:07:56;;;;;;;21.92;11.68;;;;;;;3.87;100.00;96714.88;1036066;28;20022;-54
2021/03/04 01:08:27;;;;;;;25.10;13.20;;;;;;;3.89;100.00;96708.53;1032235;28;20077;-55
2021/03/04 01:08:57;;;;;;;22.23;12.10;;;;;;;3.91;100.00;96709.25;1036254;28;20029;-56
2021/03/04 01:09:28;;;;;;;22.60;11.77;;;;;;;3.92;100.00;96713.56;1036331;28;20308;-55
2021/03/04 01:09:59;;;;;;;23.25;12.75;;;;;;;3.88;100.00;96706.03;1040346;28;20021;-57
2021/03/04 01:10:33;;;;;;;20.75;12.63;;;;;;;3.91;100.00;96711.88;1036258;28;20033;-55
2021/03/04 01:11:04;;;;;;;23.25;12.35;;;;;;;3.83;100.00;96697.66;1036377;28;20080;-55
2021/03/04 01:11:35;;;;;;;25.70;12.57;;;;;;;3.88;100.00;96708.66;1032281;28;20451;-58
2021/03/04 01:12:06;;;;;;;23.38;13.00;;;;;;;3.88;100.00;96701.59;1036244;28;20527;-56
2021/03/04 01:12:37;;;;;;;24.23;13.00;;;;;;;3.90;100.00;96702.34;1036212;28;20018;-56
2021/03/04 01:13:08;;;;;;;22.02;11.77;;;;;;;3.90;100.00;96710.22;1032196;28;20029;-56
2021/03/04 01:13:39;;;;;;;21.77;11.85;;;;;;;3.90;100.00;96704.97;1040122;28;20116;-56
2021/03/04 01:14:10;;;;;;;22.20;12.77;;;;;;;3.89;100.00;96708.53;1032207;28;20057;-55
2021/03/04 01:14:40;;;;;;;20.27;11.90;;;;;;;3.89;100.00;96708.53;1036248;28;20377;-55
2021/03/04 01:15:13;;;;;;;23.30;12.90;;;;;;;3.90;100.00;96701.47;1040354;28;20032;-57
2021/03/04 01:15:44;;;;;;;22.45;12.85;;;;;;;3.87;100.00;96704.38;1036329;28;20014;-55
2021/03/04 01:16:15;;;;;;;24.88;12.45;;;;;;;3.86;100.00;96700.88;1032083;28;20018;-55
2021/03/04 01:16:45;;;;;;;18.17;11.68;;;;;;;3.86;100.00;96706.13;1040330;28;20017;-56
2021/03/04 01:17:16;;;;;;;23.77;12.05;;;;;;;3.84;100.00;96699.34;1036271;28;20030;-55
2021/03/04 01:17:47;;;;;;;22.67;12.38;;;;;;;3.84;100.00;96700.16;1032127;28;20543;-57
2021/03/04 01:18:18;;;;;;;20.08;12.23;;;;;;;3.85;100.00;96701.00;1044496;28;20421;-54
2021/03/04 01:18:48;;;;;;;21.83;12.35;;;;;;;3.86;100.00;96702.69;1036232;28;20060;-54
2021/03/04 01:19:19;;;;;;;21.58;11.68;;;;;;;3.74;100.00;96686.03;1040478;28;20017;-55
2021/03/04 01:19:50;;;;;;;24.15;12.43;;;;;;;3.80;100.00;96698.72;1040502;28;20025;-55
2021/03/04 01:20:21;;;;;;;24.05;12.13;;;;;;;3.85;100.00;96701.84;1032754;28;20014;-55
2021/03/04 01:20:51;;;;;;;23.25;12.95;;;;;;;3.87;100.00;96697.31;1038018;28;20025;-55
2021/03/04 01:21:22;;;;;;;24.23;13.52;;;;;;;3.86;100.00;96697.41;1034186;28;20029;-55
2021/03/04 01:21:53;;;;;;;20.35;11.55;;;;;;;3.83;100.00;96703.75;1034189;28;20076;-55
2021/03/04 01:22:23;;;;;;;21.48;12.10;;;;;;;3.88;100.00;96700.75;1034194;28;20467;-55
2021/03/04 01:22:54;;;;;;;21.27;12.57;;;;;;;3.82;100.00;96696.00;1042348;28;20026;-55
2021/03/04 01:23:25;;;;;;;22.00;12.55;;;;;;;3.82;100.00;96694.19;1030886;28;20015;-58
2021/03/04 01:23:56;;;;;;;22.20;12.30;;;;;;;3.79;100.00;96699.66;1040307;28;20018;-58
2021/03/04 01:24:26;;;;;;;21.95;12.07;;;;;;;3.78;100.00;96690.97;1040479;28;20041;-57
2021/03/04 01:24:57;;;;;;;23.05;12.75;;;;;;;3.80;100.00;96696.09;1032424;28;20011;-60
2021/03/04 01:25:28;;;;;;;19.38;11.55;;;;;;;3.81;100.00;96689.03;1036313;28;20029;-56
2021/03/04 01:25:59;;;;;;;22.02;11.82;;;;;;;3.80;100.00;96693.47;1040308;28;20026;-57
2021/03/04 01:26:29;;;;;;;22.08;12.20;;;;;;;3.83;100.00;96695.88;1041200;28;20018;-54
2021/03/04 01:27:00;;;;;;;19.80;11.88;;;;;;;3.82;100.00;96690.75;1036033;28;20018;-54
2021/03/04 01:27:31;;;;;;;21.42;12.57;;;;;;;3.84;100.00;96683.56;1036069;28;20020;-52
2021/03/04 01:28:02;;;;;;;22.83;12.90;;;;;;;3.78;100.00;96690.13;1032095;28;20033;-56
2021/03/04 01:28:33;;;;;;;21.13;11.85;;;;;;;3.73;100.00;96687.00;1036419;28;20017;-52
2021/03/04 01:29:04;;;;;;;19.85;11.93;;;;;;;3.68;100.00;96689.16;1040227;28;20060;-58
2021/03/04 01:29:34;;;;;;;22.35;11.80;;;;;;;3.69;100.00;96691.66;1044393;28;20144;-54
2021/03/04 01:30:07;;;;;;;20.98;12.05;;;;;;;3.71;100.00;96691.50;1040305;28;20148;-54
2021/03/04 01:30:38;;;;;;;19.73;11.65;;;;;;;3.71;100.00;96689.75;1028124;28;20019;-57
2021/03/04 01:31:08;;;;;;;19.73;11.93;;;;;;;3.71;100.00;96688.88;1032008;28;20539;-55
2021/03/04 01:31:42;;;;;;;23.92;12.60;;;;;;;3.68;100.00;96689.16;1032128;28;20553;-54
2021/03/04 01:32:13;;;;;;;22.60;11.90;;;;;;;3.71;100.00;96696.78;1036152;28;20033;-55
2021/03/04 01:32:44;;;;;;;19.48;11.70;;;;;;;3.72;100.00;96693.19;1044414;28;20199;-54
2021/03/04 01:33:15;;;;;;;23.17;12.60;;;;;;;3.70;100.00;96697.75;1031972;28;20088;-54
2021/03/04 01:33:46;;;;;;;22.42;12.07;;;;;;;3.72;100.00;96693.19;1027882;28;20484;-57
2021/03/04 01:34:16;;;;;;;20.25;12.13;;;;;;;3.73;100.00;96694.88;1032094;28;20033;-54
2021/03/04 01:34:47;;;;;;;21.92;12.48;;;;;;;3.66;100.00;96697.13;1040262;28;20021;-55
2021/03/04 01:35:18;;;;;;;20.58;11.73;;;;;;;3.71;100.00;96695.00;1036106;28;20097;-57
2021/03/04 01:35:48;;;;;;;22.77;12.30;;;;;;;3.72;100.00;96694.03;1036106;28;20454;-55
2021/03/04 01:36:19;;;;;;;23.85;12.98;;;;;;;3.72;100.00;96696.66;1032221;28;20027;-55
2021/03/04 01:36:50;;;;;;;20.38;11.95;;;;;;;3.74;100.00;96693.91;1032081;28;20095;-56
2021/03/04 01:37:21;;;;;;;20.77;11.43;;;;;;;3.70;100.00;96695.94;1036072;28;20561;-55
2021/03/04 01:37:51;;;;;;;23.80;12.65;;;;;;;3.72;100.00;96693.19;1028035;28;20018;-55
2021/03/04 01:38:22;;;;;;;20.45;11.18;;;;;;;3.70;100.00;96697.75;1036166;28;20018;-56
2021/03/04 01:38:53;;;;;;;22.42;12.00;;;;;;;3.67;100.00;96682.19;1032093;28;20034;-53
2021/03/04 01:39:24;;;;;;;21.38;12.52;;;;;;;3.71;100.00;96684.50;1035995;28;20057;-58
2021/03/04 01:39:55;;;;;;;19.90;11.55;;;;;;;3.73;100.00;96689.63;1032086;28;20018;-55
2021/03/04 01:40:25;;;;;;;21.58;12.02;;;;;;;3.69;100.00;96688.16;1036163;28;20018;-54
2021/03/04 01:40:56;;;;;;;17.98;11.32;;;;;;;3.71;100.00;96692.38;1040388;28;20048;-57
2021/03/04 01:41:27;;;;;;;20.83;11.73;;;;;;;3.73;100.00;96687.84;1035978;28;20021;-54
2021/03/04 01:41:58;;;;;;;22.65;11.63;;;;;;;3.73;100.00;96687.00;1032102;28;20420;-55
2021/03/04 01:42:28;;;;;;;20.00;11.65;;;;;;;3.66;100.00;96684.00;1024059;29;20103;-57
2021/03/04 01:42:59;;;;;;;22.35;11.20;;;;;;;3.64;100.00;96687.69;1032111;28;20022;-55
2021/03/04 01:43:30;;;;;;;22.30;11.75;;;;;;;3.67;100.00;96687.44;1031827;28;20488;-58
2021/03/04 01:44:01;;;;;;;20.65;12.57;;;;;;;3.67;100.00;96687.44;1036038;28;20028;-54
2021/03/04 01:44:32;;;;;;;20.58;11.63;;;;;;;3.72;100.00;96680.06;1036202;28;20018;-53
2021/03/04 01:45:04;;;;;;;22.05;11.32;;;;;;;3.71;100.00;96678.38;1032113;28;20017;-55
2021/03/04 01:45:35;;;;;;;24.85;12.15;;;;;;;3.71;100.00;96678.38;1035899;28;20045;-52
2021/03/04 01:46:06;;;;;;;20.35;11.45;;;;;;;3.69;100.00;96680.28;1032153;28;20033;-54
2021/03/04 01:46:37;;;;;;;23.80;11.82;;;;;;;3.70;100.00;96684.59;1027984;28;20030;-56
2021/03/04 01:47:07;;;;;;;22.92;11.85;;;;;;;3.71;100.00;96678.38;1040318;28;20505;-55
2021/03/04 01:47:39;;;;;;;23.20;12.23;;;;;;;3.71;100.00;96681.00;1039991;28;20483;-57
2021/03/04 01:48:10;;;;;;;20.65;11.93;;;;;;;3.69;100.00;96680.28;1028111;28;20484;-56
2021/03/04 01:48:41;;;;;;;23.70;12.52;;;;;;;3.69;100.00;96675.03;1032072;28;20026;-56
2021/03/04 01:49:12;;;;;;;21.83;10.95;;;;;;;3.64;100.00;96672.78;1028042;28;20027;-55
2021/03/04 01:49:43;;;;;;;21.05;12.05;;;;;;;3.59;100.00;96662.59;1031914;28;20019;-55
2021/03/04 01:50:14;;;;;;;19.15;11.30;;;;;;;3.67;100.00;96672.53;1028061;28;20094;-55
2021/03/04 01:50:45;;;;;;;17.85;11.18;;;;;;;3.64;100.00;96674.53;1040176;28;20017;-56
2021/03/04 01:51:16;;;;;;;24.48;11.77;;;;;;;3.64;100.00;96670.16;1036252;28;20458;-55
2021/03/04 01:51:47;;;;;;;18.95;10.57;;;;;;;3.64;100.00;96675.41;1031965;28;20149;-56
2021/03/04 01:52:17;;;;;;;20.40;11.30;;;;;;;3.67;100.00;96676.94;1036115;28;20055;-55
2021/03/04 01:52:48;;;;;;;19.67;11.73;;;;;;;2.96;100.00;96566.69;1032042;28;20065;-55
2021/03/04 01:53:19;;;;;;;19.73;11.32;;;;;;;3.66;100.00;96667.38;1032033;28;20029;-55
2021/03/04 01:53:50;;;;;;;23.17;11.38;;;;;;;3.67;100.00;96669.91;1039911;28;20025;-57
2021/03/04 01:54:20;;;;;;;19.92;11.55;;;;;;;3.64;100.00;96666.66;1036093;28;20021;-57
2021/03/04 01:54:52;;;;;;;20.83;11.77;;;;;;;3.63;100.00;96663.22;1031971;28;20565;-52
2021/03/04 01:55:22;;;;;;;20.02;11.40;;;;;;;3.64;100.00;96662.28;1032192;28;20038;-55
2021/03/04 01:55:54;;;;;;;19.95;11.13;;;;;;;3.65;100.00;96670.97;1031904;28;20073;-56
2021/03/04 01:56:25;;;;;;;22.30;12.20;;;;;;;3.64;100.00;96667.53;1024021;28;20475;-53
2021/03/04 01:56:56;;;;;;;19.90;11.63;;;;;;;3.64;100.00;96656.16;1040095;28;20137;-56
2021/03/04 01:57:28;;;;;;;23.35;11.90;;;;;;;3.68;100.00;96671.59;1036144;28;20545;-56
2021/03/04 01:57:59;;;;;;;20.48;11.32;;;;;;;3.66;100.00;96662.13;1031971;28;20026;-55
2021/03/04 01:58:29;;;;;;;18.48;10.77;;;;;;;3.65;100.00;96669.19;1032038;28;20026;-56
2021/03/04 01:59:00;;;;;;;20.45;11.50;;;;;;;3.63;100.00;96665.84;1028004;28;20026;-55
2021/03/04 01:59:31;;;;;;;21.85;11.60;;;;;;;3.65;100.00;96673.59;1032073;28;20018;-57
2021/03/04 02:00:02;;;;;;;21.98;11.90;;;;;;;3.66;100.00;96670.00;1031907;28;20063;-55
2021/03/04 02:00:33;;;;;;;22.60;11.80;;;;;;;3.61;100.00;96664.28;1028030;28;20495;-57
2021/03/04 02:01:04;;;;;;;19.55;11.25;;;;;;;3.67;100.00;96664.66;1036081;28;20072;-55
2021/03/04 02:01:34;;;;;;;20.98;11.98;;;;;;;3.68;100.00;96657.63;1028061;28;20027;-55
2021/03/04 02:02:05;;;;;;;19.02;11.23;;;;;;;3.65;100.00;96663.09;1036024;28;20025;-55
2021/03/04 02:02:36;;;;;;;18.67;11.32;;;;;;;3.64;100.00;96649.13;1036028;28;20026;-54
2021/03/04 02:03:06;;;;;;;19.23;11.82;;;;;;;3.65;100.00;96663.09;1035999;28;20474;-55
2021/03/04 02:03:37;;;;;;;20.35;11.13;;;;;;;3.67;100.00;96655.94;1039667;28;20071;-54
2021/03/04 02:04:08;;;;;;;21.50;12.30;;;;;;;3.65;100.00;96660.47;1035932;28;20104;-55
2021/03/04 02:04:39;;;;;;;19.98;10.65;;;;;;;3.66;100.00;96649.00;1027950;28;20061;-55
2021/03/04 02:05:11;;;;;;;19.65;11.02;;;;;;;3.61;100.00;96657.25;1036130;28;20033;-56
2021/03/04 02:05:43;;;;;;;20.63;11.38;;;;;;;3.63;100.00;96659.75;1035963;28;20017;-56
2021/03/04 02:06:13;;;;;;;20.67;11.88;;;;;;;3.67;100.00;96661.19;1031991;28;20084;-56
2021/03/04 02:06:57;;;;;;;19.58;10.85;;;;;;;3.67;100.00;96655.94;1035998;28;20061;-55
2021/03/04 02:07:45;;;;;;;23.13;11.32;;;;;;;3.67;100.00;96662.03;1023935;28;20035;-54
2021/03/04 02:08:30;;;;;;;22.13;11.57;;;;;;;3.64;100.00;96664.03;1032140;28;20043;-56
2021/03/04 02:09:02;;;;;;;23.95;10.65;;;;;;;3.66;100.00;96664.75;1034071;28;20507;-55
2021/03/04 02:09:33;;;;;;;21.38;11.95;;;;;;;3.59;100.00;96653.91;1032054;28;20030;-55
2021/03/04 02:10:08;;;;;;;18.58;10.65;;;;;;;3.61;100.00;96657.25;1027938;28;20019;-56
2021/03/04 02:10:49;;;;;;;20.40;10.85;;;;;;;3.59;100.00;96664.41;1035932;28;20408;-55
2021/03/04 02:11:25;;;;;;;18.70;11.30;;;;;;;3.61;100.00;96661.66;1031995;28;20048;-56
2021/03/04 02:12:00;;;;;;;19.52;10.57;;;;;;;3.65;100.00;96663.09;1026882;28;20540;-56
2021/03/04 02:12:42;;;;;;;18.98;11.77;;;;;;;3.62;100.00;96656.28;1029046;28;20466;-56
2021/03/04 02:13:23;;;;;;;20.73;11.30;;;;;;;3.62;100.00;96655.44;1036004;28;20427;-54
2021/03/04 02:13:56;;;;;;;18.20;10.40;;;;;;;3.55;100.00;96655.06;1035893;28;20122;-55
2021/03/04 02:14:29;;;;;;;21.33;12.13;;;;;;;3.50;100.00;96652.81;1040153;28;20138;-55
2021/03/04 02:15:03;;;;;;;21.20;11.27;;;;;;;3.59;100.00;96653.91;1031868;28;20037;-58
2021/03/04 02:15:37;;;;;;;18.67;11.68;;;;;;;3.58;100.00;96652.22;1040186;28;20434;-56
2021/03/04 02:16:19;;;;;;;16.13;10.45;;;;;;;3.59;100.00;96653.91;1036080;28;20483;-56
2021/03/04 02:16:53;;;;;;;21.38;10.80;;;;;;;3.58;100.00;96653.03;1038485;28;20022;-55
2021/03/04 02:17:27;;;;;;;22.48;11.98;;;;;;;3.57;100.00;96656.63;1027927;28;20046;-54
2021/03/04 02:17:59;;;;;;;18.50;10.43;;;;;;;3.62;100.00;96658.06;1035898;28;20088;-55
2021/03/04 02:18:33;;;;;;;20.67;11.25;;;;;;;3.63;100.00;96655.34;1040115;28;20084;-56
2021/03/04 02:19:08;;;;;;;20.88;12.00;;;;;;;3.65;100.00;96650.78;1031885;28;20033;-55
2021/03/04 02:19:51;;;;;;;19.77;11.00;;;;;;;3.61;100.00;96651.16;1033426;28;20109;-55
2021/03/04 02:20:24;;;;;;;22.20;11.63;;;;;;;3.62;100.00;96658.06;1040164;28;20030;-57
2021/03/04 02:21:06;;;;;;;20.67;10.30;;;;;;;3.63;100.00;96644.00;1037455;28;20113;-56
2021/03/04 02:21:52;;;;;;;21.00;11.93;;;;;;;3.65;100.00;96642.09;1036031;28;20022;-56
2021/03/04 02:22:46;;;;;;;21.48;10.85;;;;;;;3.64;100.00;96643.88;1040079;28;20014;-54
2021/03/04 02:23:36;;;;;;;20.55;10.63;;;;;;;3.55;100.00;96642.78;1034648;28;20022;-54
2021/03/04 02:24:17;;;;;;;20.48;10.77;;;;;;;3.54;100.00;96648.16;1030343;28;20109;-55
2021/03/04 02:25:08;;;;;;;22.17;10.90;;;;;;;3.56;100.00;96647.06;1032116;28;20021;-55
2021/03/04 02:25:50;;;;;;;21.70;10.88;;;;;;;3.56;100.00;96652.31;1032127;28;20019;-56
2021/03/04 02:26:40;;;;;;;22.38;10.82;;;;;;;3.59;100.00;96643.41;1031967;28;20026;-55
2021/03/04 02:27:13;;;;;;;23.15;11.45;;;;;;;3.63;100.00;96644.81;1036395;28;20380;-56